Time;durP1;ratioP1;P1;durP2;ratioP2;P2;SDS_P1;SDS_P2;PMS_P1;PMS_P2;Temp;Humidity;BMP_temperature;BMP_pressure;BME280_temperature;BME280_humidity;BME280_pressure;Samples;Min_cycle;Max_cycle;Signal;HPM_P1;HPM_P2
2023/06/28 00:00:00;;;;;;;0.10;0.10;;;14.40;99.90;;;;;;5109941;28;20208;-76
2023/06/28 00:02:26;;;;;;;0.10;0.10;;;14.50;99.90;;;;;;5109134;28;20703;-76
2023/06/28 00:04:52;;;;;;;0.10;0.10;;;14.60;99.90;;;;;;5087280;28;20212;-77
2023/06/28 00:07:18;;;;;;;0.10;0.10;;;14.50;99.90;;;;;;5109362;28;20192;-76
2023/06/28 00:09:43;;;;;;;0.10;0.10;;;14.60;99.90;;;;;;5118863;27;20437;-76
2023/06/28 00:12:09;;;;;;;0.10;0.10;;;14.50;99.90;;;;;;5101590;27;20245;-76
2023/06/28 00:14:35;;;;;;;0.10;0.10;;;14.50;99.90;;;;;;5108656;28;20189;-76
2023/06/28 00:17:00;;;;;;;0.10;0.10;;;14.60;99.90;;;;;;5102871;28;20203;-76
2023/06/28 00:19:29;;;;;;;0.10;0.10;;;14.70;99.90;;;;;;5105446;28;20240;-76
2023/06/28 00:21:55;;;;;;;0.10;0.10;;;14.60;99.90;;;;;;5106443;28;20176;-76
2023/06/28 00:24:21;;;;;;;0.10;0.10;;;14.70;99.90;;;;;;5107161;28;20514;-75
2023/06/28 00:26:47;;;;;;;0.10;0.10;;;14.70;99.90;;;;;;5108778;28;20820;-76
2023/06/28 00:29:13;;;;;;;0.10;0.10;;;14.60;99.90;;;;;;5108339;27;20449;-76
2023/06/28 00:31:38;;;;;;;0.10;0.10;;;14.60;99.90;;;;;;5105507;28;20237;-76
2023/06/28 00:34:04;;;;;;;0.10;0.10;;;14.50;99.90;;;;;;5086298;28;20184;-76
2023/06/28 00:36:29;;;;;;;0.10;0.10;;;14.60;99.90;;;;;;5109156;28;20543;-77
2023/06/28 00:38:55;;;;;;;0.10;0.10;;;14.50;99.90;;;;;;5106458;28;20188;-76
2023/06/28 00:41:20;;;;;;;0.10;0.10;;;14.50;99.90;;;;;;5106193;28;20969;-76
2023/06/28 00:43:46;;;;;;;0.10;0.10;;;14.50;99.90;;;;;;5090984;28;20810;-76
2023/06/28 00:46:11;;;;;;;0.10;0.10;;;14.50;99.90;;;;;;5104023;28;20534;-76
2023/06/28 00:48:37;;;;;;;0.10;0.10;;;14.40;99.90;;;;;;5106520;28;20299;-76
2023/06/28 00:51:03;;;;;;;0.10;0.10;;;14.40;99.90;;;;;;5104038;28;20180;-76
2023/06/28 00:53:30;;;;;;;0.10;0.10;;;14.30;99.90;;;;;;5105711;28;20183;-76
2023/06/28 00:55:56;;;;;;;0.10;0.10;;;14.20;99.90;;;;;;5107296;28;20442;-76
2023/06/28 00:58:22;;;;;;;0.10;0.10;;;14.30;99.90;;;;;;5088675;28;20442;-76
2023/06/28 01:00:47;;;;;;;0.10;0.10;;;14.20;99.90;;;;;;5121566;27;20479;-76
2023/06/28 01:03:17;;;;;;;0.10;0.10;;;14.20;99.90;;;;;;5104926;28;20449;-76
2023/06/28 01:05:47;;;;;;;0.10;0.10;;;14.00;99.90;;;;;;5108006;28;20283;-76
2023/06/28 01:08:14;;;;;;;0.10;0.10;;;14.00;99.90;;;;;;5106719;28;20449;-76
2023/06/28 01:10:40;;;;;;;0.10;0.10;;;14.10;99.90;;;;;;5106706;28;20457;-76
2023/06/28 01:13:06;;;;;;;0.10;0.10;;;14.00;99.90;;;;;;5106272;28;20445;-76
2023/06/28 01:15:31;;;;;;;0.10;0.10;;;14.10;99.90;;;;;;5105387;28;20450;-76
2023/06/28 01:17:58;;;;;;;0.10;0.10;;;14.10;99.90;;;;;;5106416;28;20673;-76
2023/06/28 01:20:24;;;;;;;0.10;0.10;;;14.10;99.90;;;;;;5107514;28;20275;-76
2023/06/28 01:22:55;;;;;;;0.10;0.10;;;14.00;99.90;;;;;;5108691;28;20502;-76
2023/06/28 01:25:21;;;;;;;0.10;0.10;;;13.90;99.90;;;;;;5106938;28;20259;-76
2023/06/28 01:27:47;;;;;;;0.10;0.10;;;13.80;99.90;;;;;;5109199;28;20494;-76
2023/06/28 01:30:14;;;;;;;0.10;0.10;;;13.90;99.90;;;;;;5110485;28;20196;-76
2023/06/28 01:32:42;;;;;;;0.10;0.10;;;13.90;99.90;;;;;;5105293;28;20442;-76
2023/06/28 01:35:08;;;;;;;0.10;0.10;;;13.90;99.90;;;;;;5110245;28;20446;-76
2023/06/28 01:37:34;;;;;;;0.10;0.10;;;13.90;99.90;;;;;;5111186;27;20444;-76
2023/06/28 01:40:02;;;;;;;0.10;0.10;;;13.90;99.90;;;;;;5113473;27;20442;-76
2023/06/28 01:42:28;;;;;;;0.10;0.10;;;13.90;99.90;;;;;;5112442;28;20184;-76
2023/06/28 01:44:53;;;;;;;0.10;0.10;;;13.80;99.90;;;;;;5111084;28;20489;-76
2023/06/28 01:47:19;;;;;;;0.10;0.10;;;13.70;99.90;;;;;;5106121;28;20529;-76
2023/06/28 01:49:45;;;;;;;0.10;0.10;;;13.80;99.90;;;;;;5111629;28;20196;-76
2023/06/28 01:52:11;;;;;;;0.10;0.10;;;13.70;99.90;;;;;;5110646;28;20185;-76
2023/06/28 01:54:36;;;;;;;0.10;0.10;;;13.80;99.90;;;;;;5110446;28;20529;-76
2023/06/28 01:57:02;;;;;;;0.10;0.10;;;13.80;99.90;;;;;;5111602;28;20192;-76
2023/06/28 01:59:29;;;;;;;0.10;0.10;;;13.80;99.90;;;;;;5110420;28;20254;-76
2023/06/28 02:01:55;;;;;;;0.10;0.10;;;13.80;99.90;;;;;;5109788;28;20466;-76
2023/06/28 02:04:21;;;;;;;0.10;0.10;;;13.70;99.90;;;;;;5108858;28;20489;-76
2023/06/28 02:06:46;;;;;;;0.10;0.10;;;13.80;99.90;;;;;;5108826;28;20233;-75
2023/06/28 02:09:12;;;;;;;0.10;0.10;;;13.90;99.90;;;;;;5103082;27;20660;-76
2023/06/28 02:11:37;;;;;;;0.10;0.10;;;13.90;99.90;;;;;;5092129;28;20251;-76
2023/06/28 02:14:03;;;;;;;0.10;0.10;;;13.90;99.90;;;;;;5105191;28;20208;-76
2023/06/28 02:16:31;;;;;;;0.10;0.10;;;13.80;99.90;;;;;;5104930;28;20271;-77
2023/06/28 02:18:57;;;;;;;0.10;0.10;;;13.80;99.90;;;;;;5108773;28;20233;-76
2023/06/28 02:21:23;;;;;;;0.10;0.10;;;13.60;99.90;;;;;;5098881;28;20442;-76
2023/06/28 02:23:49;;;;;;;0.10;0.10;;;13.60;99.90;;;;;;5109589;28;20489;-76
2023/06/28 02:26:14;;;;;;;0.10;0.10;;;13.70;99.90;;;;;;5110995;28;20192;-76
2023/06/28 02:28:40;;;;;;;0.10;0.10;;;13.80;99.90;;;;;;5111749;28;20564;-76
2023/06/28 02:31:05;;;;;;;0.10;0.10;;;13.80;99.90;;;;;;5111689;27;20218;-76
2023/06/28 02:33:31;;;;;;;0.10;0.10;;;13.60;99.90;;;;;;5108717;28;20192;-76
2023/06/28 02:35:56;;;;;;;0.10;0.10;;;13.60;99.90;;;;;;5111979;28;20863;-76
2023/06/28 02:38:22;;;;;;;0.10;0.10;;;13.70;99.90;;;;;;5106130;28;20177;-76
2023/06/28 02:40:47;;;;;;;0.10;0.10;;;13.80;99.90;;;;;;5098570;28;20283;-77
2023/06/28 02:43:13;;;;;;;0.10;0.10;;;13.80;99.90;;;;;;5109403;28;20176;-76
2023/06/28 02:45:38;;;;;;;0.10;0.10;;;13.80;99.90;;;;;;5109453;28;20664;-76
2023/06/28 02:48:04;;;;;;;0.10;0.10;;;13.80;99.90;;;;;;5107968;28;20176;-76
2023/06/28 02:50:30;;;;;;;0.10;0.10;;;13.80;99.90;;;;;;5107867;28;20200;-76
2023/06/28 02:52:55;;;;;;;0.10;0.10;;;13.50;99.90;;;;;;5104467;28;20689;-76
2023/06/28 02:55:21;;;;;;;0.10;0.10;;;13.50;99.90;;;;;;5102658;28;20437;-76
2023/06/28 02:57:46;;;;;;;0.10;0.10;;;13.50;99.90;;;;;;5109852;28;20223;-76
2023/06/28 03:00:12;;;;;;;0.10;0.10;;;13.60;99.90;;;;;;5110232;28;20695;-76
2023/06/28 03:02:38;;;;;;;0.10;0.10;;;13.60;99.90;;;;;;5110804;28;20663;-76
2023/06/28 03:05:04;;;;;;;0.10;0.10;;;13.50;99.90;;;;;;5110930;28;20488;-76
2023/06/28 03:07:29;;;;;;;0.10;0.10;;;13.50;99.90;;;;;;5109656;28;20220;-76
2023/06/28 03:09:54;;;;;;;0.10;0.10;;;13.40;99.90;;;;;;5109097;28;20262;-76
2023/06/28 03:12:20;;;;;;;0.10;0.10;;;13.50;99.90;;;;;;5102641;27;20578;-76
2023/06/28 03:14:46;;;;;;;0.10;0.10;;;13.40;99.90;;;;;;5109511;28;20188;-76
2023/06/28 03:17:11;;;;;;;0.10;0.10;;;13.40;99.90;;;;;;5091211;28;20185;-76
2023/06/28 03:19:37;;;;;;;0.10;0.10;;;13.40;99.90;;;;;;5104604;27;20219;-76
2023/06/28 03:22:03;;;;;;;0.10;0.10;;;13.40;99.90;;;;;;5109233;28;20211;-76
2023/06/28 03:24:28;;;;;;;0.10;0.10;;;13.40;99.90;;;;;;5109272;28;20281;-76
2023/06/28 03:26:54;;;;;;;0.13;0.10;;;13.50;99.90;;;;;;5101901;28;20530;-76
2023/06/28 03:29:20;;;;;;;0.10;0.10;;;13.50;99.90;;;;;;5098161;28;20189;-76
2023/06/28 03:31:45;;;;;;;0.10;0.10;;;13.50;99.90;;;;;;5106740;28;20449;-77
2023/06/28 03:34:11;;;;;;;0.10;0.10;;;13.60;99.90;;;;;;5109926;28;20226;-76
2023/06/28 03:36:36;;;;;;;0.10;0.10;;;13.60;99.90;;;;;;5119758;27;20563;-76
2023/06/28 03:39:02;;;;;;;0.10;0.10;;;13.50;99.90;;;;;;5109387;28;20192;-76
2023/06/28 03:41:28;;;;;;;0.10;0.10;;;13.60;99.90;;;;;;5092946;28;20546;-76
2023/06/28 03:43:53;;;;;;;0.10;0.10;;;13.60;99.90;;;;;;5106213;28;20196;-76
2023/06/28 03:46:19;;;;;;;0.10;0.10;;;13.70;99.90;;;;;;5105475;28;20251;-76
2023/06/28 03:48:44;;;;;;;0.10;0.10;;;13.80;99.90;;;;;;5108702;28;20222;-76
2023/06/28 03:51:10;;;;;;;0.10;0.10;;;13.70;99.90;;;;;;5102902;27;21884;-76
2023/06/28 03:53:35;;;;;;;0.10;0.10;;;13.60;99.90;;;;;;5108668;28;20191;-76
2023/06/28 03:56:01;;;;;;;0.10;0.10;;;13.60;99.90;;;;;;5109833;28;20196;-76
2023/06/28 03:58:27;;;;;;;0.10;0.10;;;13.60;99.90;;;;;;5107153;28;20188;-76
2023/06/28 04:00:52;;;;;;;0.10;0.10;;;13.60;99.90;;;;;;5107592;28;20308;-76
2023/06/28 04:03:19;;;;;;;0.10;0.10;;;13.60;99.90;;;;;;5107920;28;20234;-76
2023/06/28 04:05:44;;;;;;;0.10;0.10;;;13.70;99.90;;;;;;5109610;28;20472;-76
2023/06/28 04:08:11;;;;;;;0.10;0.10;;;13.60;99.90;;;;;;5109991;28;20442;-76
2023/06/28 04:10:37;;;;;;;0.10;0.10;;;13.70;99.90;;;;;;5107248;28;20274;-76
2023/06/28 04:13:03;;;;;;;0.10;0.10;;;13.70;99.90;;;;;;5108814;28;20515;-76
2023/06/28 04:15:29;;;;;;;0.10;0.10;;;13.70;99.90;;;;;;5107914;28;20446;-76
2023/06/28 04:17:54;;;;;;;0.10;0.10;;;13.80;99.90;;;;;;5106466;28;20547;-76
2023/06/28 04:20:20;;;;;;;0.10;0.10;;;13.80;99.90;;;;;;5091333;28;20271;-75
2023/06/28 04:22:45;;;;;;;0.10;0.10;;;13.80;99.90;;;;;;5105913;28;20192;-76
2023/06/28 04:25:11;;;;;;;0.10;0.10;;;13.90;99.90;;;;;;5108783;27;20263;-76
2023/06/28 04:27:37;;;;;;;0.10;0.10;;;13.90;99.90;;;;;;5103880;28;20722;-76
2023/06/28 04:30:03;;;;;;;0.10;0.10;;;13.90;99.90;;;;;;5109202;27;20196;-76
2023/06/28 04:32:29;;;;;;;0.10;0.10;;;14.00;99.90;;;;;;5108410;28;20188;-76
2023/06/28 04:34:59;;;;;;;0.10;0.10;;;14.00;99.90;;;;;;5109125;28;20484;-76
2023/06/28 04:37:28;;;;;;;0.10;0.10;;;14.00;99.90;;;;;;5087319;28;20823;-76
2023/06/28 04:39:57;;;;;;;0.10;0.10;;;14.10;99.90;;;;;;5106320;28;20446;-76
2023/06/28 04:42:23;;;;;;;0.10;0.10;;;14.10;99.90;;;;;;5105833;28;20434;-76
2023/06/28 04:44:49;;;;;;;0.10;0.10;;;14.20;99.90;;;;;;5102583;28;20480;-76
2023/06/28 04:47:18;;;;;;;0.10;0.10;;;14.30;99.90;;;;;;5103365;28;20435;-76
2023/06/28 04:49:48;;;;;;;0.10;0.10;;;14.30;99.90;;;;;;5105992;28;20444;-76
2023/06/28 04:52:19;;;;;;;0.10;0.10;;;14.40;99.90;;;;;;5110524;28;20479;-76
2023/06/28 04:54:45;;;;;;;0.10;0.10;;;14.40;99.90;;;;;;5100268;28;20467;-76
2023/06/28 04:57:12;;;;;;;0.10;0.10;;;14.50;99.90;;;;;;5109390;28;20528;-77
2023/06/28 04:59:38;;;;;;;0.10;0.10;;;14.50;99.90;;;;;;5108753;28;20442;-76
2023/06/28 05:02:05;;;;;;;0.10;0.10;;;14.60;99.90;;;;;;5103146;28;20881;-76
2023/06/28 05:04:33;;;;;;;0.10;0.10;;;14.70;99.90;;;;;;5102900;28;20571;-76
2023/06/28 05:07:03;;;;;;;0.10;0.10;;;14.70;99.90;;;;;;5108074;28;21056;-76
2023/06/28 05:09:29;;;;;;;0.10;0.10;;;14.80;99.90;;;;;;5125439;27;20447;-76
2023/06/28 05:11:55;;;;;;;0.10;0.10;;;15.00;99.90;;;;;;5106840;28;20498;-77
2023/06/28 05:14:21;;;;;;;0.10;0.10;;;15.00;99.90;;;;;;5111854;27;20861;-77
2023/06/28 05:16:47;;;;;;;0.10;0.10;;;15.10;99.90;;;;;;5112710;28;20448;-77
2023/06/28 05:19:12;;;;;;;0.10;0.10;;;15.20;99.90;;;;;;5111220;28;20556;-76
2023/06/28 05:21:38;;;;;;;0.10;0.10;;;15.40;99.90;;;;;;5108065;28;20192;-76
2023/06/28 05:24:03;;;;;;;0.10;0.10;;;15.40;99.90;;;;;;5109775;28;20742;-76
2023/06/28 05:26:29;;;;;;;0.10;0.10;;;15.50;99.90;;;;;;5107485;27;20207;-76
2023/06/28 05:28:55;;;;;;;0.10;0.10;;;15.60;99.90;;;;;;5108362;27;20233;-77
2023/06/28 05:31:21;;;;;;;0.10;0.10;;;15.70;99.90;;;;;;5107168;27;20553;-76
2023/06/28 05:33:46;;;;;;;0.10;0.10;;;15.70;99.90;;;;;;5115453;27;20184;-76
2023/06/28 05:36:12;;;;;;;0.10;0.10;;;15.80;99.90;;;;;;5110183;28;21188;-77
2023/06/28 05:38:37;;;;;;;0.10;0.10;;;15.80;99.90;;;;;;5111898;28;20234;-77
2023/06/28 05:41:16;;;;;;;0.10;0.10;;;16.00;99.90;;;;;;5109275;28;20195;-76
2023/06/28 05:43:45;;;;;;;0.10;0.10;;;16.10;99.90;;;;;;5083719;28;20576;-76
2023/06/28 05:46:10;;;;;;;0.10;0.10;;;16.20;99.90;;;;;;5108559;28;20446;-76
2023/06/28 05:48:36;;;;;;;0.10;0.10;;;16.20;99.90;;;;;;5108388;28;20481;-76
2023/06/28 05:51:01;;;;;;;0.10;0.10;;;16.30;99.90;;;;;;5110944;27;20664;-76
2023/06/28 05:53:29;;;;;;;0.10;0.10;;;16.40;99.90;;;;;;5108802;28;20203;-76
2023/06/28 05:55:55;;;;;;;0.10;0.10;;;16.50;99.90;;;;;;5108356;27;20185;-76
2023/06/28 05:58:20;;;;;;;0.10;0.10;;;16.60;99.90;;;;;;5128327;27;20414;-76
2023/06/28 06:00:46;;;;;;;0.10;0.10;;;16.60;99.90;;;;;;5105387;27;20482;-76
2023/06/28 06:03:11;;;;;;;0.10;0.10;;;16.70;99.90;;;;;;5104164;27;20237;-76
2023/06/28 06:05:37;;;;;;;0.10;0.10;;;16.80;99.90;;;;;;5105597;27;20243;-76
2023/06/28 06:08:04;;;;;;;0.10;0.10;;;16.90;99.90;;;;;;5108191;28;20180;-76
2023/06/28 06:10:30;;;;;;;0.10;0.10;;;17.00;99.90;;;;;;5109166;28;20546;-76
2023/06/28 06:12:55;;;;;;;0.10;0.10;;;17.10;99.90;;;;;;5110004;28;20438;-76
2023/06/28 06:15:21;;;;;;;0.10;0.10;;;17.20;99.90;;;;;;5104281;28;20536;-76
2023/06/28 06:17:46;;;;;;;0.10;0.10;;;17.10;99.90;;;;;;5107641;28;20752;-76
2023/06/28 06:20:15;;;;;;;0.10;0.10;;;17.20;99.90;;;;;;5107233;28;20842;-76
2023/06/28 06:22:43;;;;;;;0.10;0.10;;;17.30;99.90;;;;;;5104671;27;20218;-76
2023/06/28 06:25:09;;;;;;;0.10;0.10;;;17.20;99.90;;;;;;5100727;27;20478;-76
2023/06/28 06:27:36;;;;;;;0.10;0.10;;;17.20;99.90;;;;;;5111994;28;20945;-76
2023/06/28 06:30:02;;;;;;;0.10;0.10;;;17.50;99.90;;;;;;5110482;28;20234;-75
2023/06/28 06:32:27;;;;;;;0.10;0.10;;;17.50;99.90;;;;;;5106310;28;20459;-75
2023/06/28 06:34:53;;;;;;;0.10;0.10;;;17.60;99.90;;;;;;5110508;28;20449;-76
2023/06/28 06:37:20;;;;;;;0.10;0.10;;;17.70;99.90;;;;;;5111248;28;20229;-77
2023/06/28 06:39:46;;;;;;;0.10;0.10;;;17.80;99.90;;;;;;5110816;28;20823;-77
2023/06/28 06:42:11;;;;;;;0.10;0.10;;;17.80;99.90;;;;;;5106168;27;20438;-77
2023/06/28 06:44:37;;;;;;;0.10;0.10;;;17.80;99.90;;;;;;5107730;28;20227;-76
2023/06/28 06:47:03;;;;;;;0.10;0.10;;;18.00;99.90;;;;;;5106478;28;20188;-76
2023/06/28 06:49:29;;;;;;;0.10;0.10;;;18.10;99.90;;;;;;5105263;28;20293;-76
2023/06/28 06:51:54;;;;;;;0.10;0.10;;;18.30;99.90;;;;;;5110791;28;20494;-77
2023/06/28 06:54:20;;;;;;;0.10;0.10;;;18.50;99.90;;;;;;5109383;28;20528;-76
2023/06/28 06:56:45;;;;;;;0.10;0.00;;;18.40;99.90;;;;;;5090455;28;20184;-76
2023/06/28 06:59:11;;;;;;;0.10;0.10;;;18.50;99.90;;;;;;5110307;28;20188;-76
2023/06/28 07:01:36;;;;;;;0.10;0.00;;;18.30;99.90;;;;;;5108060;27;20260;-76
2023/06/28 07:04:02;;;;;;;0.10;0.10;;;18.20;99.90;;;;;;5104127;27;20212;-76
2023/06/28 07:06:28;;;;;;;0.10;0.10;;;17.90;99.90;;;;;;5113379;27;20184;-76
2023/06/28 07:08:54;;;;;;;0.10;0.10;;;17.90;99.90;;;;;;5109356;28;20189;-76
2023/06/28 07:11:19;;;;;;;0.10;0.10;;;18.20;99.90;;;;;;5108390;28;20625;-77
2023/06/28 07:13:45;;;;;;;0.10;0.10;;;18.40;99.90;;;;;;5109915;28;20242;-76
2023/06/28 07:16:11;;;;;;;0.10;0.10;;;18.60;99.90;;;;;;5108245;28;20190;-77
2023/06/28 07:18:38;;;;;;;0.10;0.10;;;18.80;99.90;;;;;;5110942;28;20184;-77
2023/06/28 07:21:04;;;;;;;0.10;0.10;;;19.10;99.90;;;;;;5101366;28;20647;-77
2023/06/28 07:23:29;;;;;;;0.10;0.00;;;19.20;99.90;;;;;;5104333;27;20533;-77
2023/06/28 07:25:55;;;;;;;0.10;0.10;;;19.00;99.90;;;;;;5108878;27;20188;-77
2023/06/28 07:28:21;;;;;;;0.10;0.00;;;18.80;99.90;;;;;;5088095;28;20183;-77
2023/06/28 07:30:57;;;;;;;0.10;0.10;;;18.50;99.90;;;;;;5090412;28;20199;-76
2023/06/28 07:33:23;;;;;;;0.10;0.10;;;18.50;99.90;;;;;;5096057;28;20452;-75
2023/06/28 07:35:49;;;;;;;0.10;0.00;;;18.60;99.90;;;;;;5110912;27;20503;-77
2023/06/28 07:38:20;;;;;;;0.10;0.10;;;19.00;99.90;;;;;;5109705;28;20508;-76
2023/06/28 07:40:46;;;;;;;0.10;0.10;;;19.30;99.90;;;;;;5106431;28;20516;-75
2023/06/28 07:43:15;;;;;;;0.10;0.00;;;19.50;99.90;;;;;;5109544;28;20439;-76
2023/06/28 07:45:41;;;;;;;0.10;0.00;;;19.50;99.90;;;;;;5106094;28;20446;-75
2023/06/28 07:48:07;;;;;;;0.10;0.10;;;19.50;99.90;;;;;;5108054;28;20445;-75
2023/06/28 07:50:33;;;;;;;0.10;0.00;;;19.30;99.90;;;;;;5104746;28;20187;-76
2023/06/28 07:52:58;;;;;;;0.10;0.00;;;19.30;99.90;;;;;;5108567;28;20430;-76
2023/06/28 07:55:24;;;;;;;0.10;0.00;;;19.40;99.90;;;;;;5110813;28;20172;-76
2023/06/28 07:57:49;;;;;;;0.10;0.00;;;19.60;99.90;;;;;;5101205;28;20552;-75
2023/06/28 08:00:16;;;;;;;0.10;0.00;;;19.90;99.90;;;;;;5096816;28;20220;-76
2023/06/28 08:02:42;;;;;;;0.10;0.00;;;20.20;99.90;;;;;;5109590;28;21514;-76
2023/06/28 08:05:08;;;;;;;0.10;0.00;;;20.40;99.90;;;;;;5109246;28;20486;-76
2023/06/28 08:07:35;;;;;;;0.10;0.00;;;20.50;99.90;;;;;;5106902;28;20219;-76
2023/06/28 08:10:00;;;;;;;0.10;0.00;;;20.70;99.90;;;;;;5103106;28;20529;-77
2023/06/28 08:12:26;;;;;;;0.10;0.00;;;20.60;99.90;;;;;;5108114;28;20517;-76
2023/06/28 08:14:51;;;;;;;0.00;0.00;;;20.40;99.90;;;;;;5104334;28;20568;-77
2023/06/28 08:17:17;;;;;;;0.00;0.00;;;20.20;99.90;;;;;;5107135;28;20183;-77
2023/06/28 08:19:42;;;;;;;0.00;0.00;;;19.80;99.90;;;;;;5109820;28;20251;-77
2023/06/28 08:22:08;;;;;;;0.00;0.00;;;19.60;99.90;;;;;;5094425;28;20575;-77
2023/06/28 08:24:33;;;;;;;0.00;0.00;;;19.70;99.90;;;;;;5108018;28;20298;-77
2023/06/28 08:26:59;;;;;;;0.00;0.00;;;20.30;99.90;;;;;;5113364;27;20198;-77
2023/06/28 08:29:25;;;;;;;0.00;0.00;;;20.80;99.90;;;;;;5131407;27;20167;-76
2023/06/28 08:31:50;;;;;;;0.00;0.00;;;20.70;99.90;;;;;;5094733;28;20589;-76
2023/06/28 08:34:19;;;;;;;0.00;0.00;;;20.60;99.90;;;;;;5110413;28;20433;-76
2023/06/28 08:36:44;;;;;;;0.00;0.00;;;20.50;99.90;;;;;;5107691;28;20559;-77
2023/06/28 08:39:10;;;;;;;0.00;0.00;;;20.60;99.90;;;;;;5106450;28;20430;-77
2023/06/28 08:41:36;;;;;;;0.00;0.00;;;20.50;99.90;;;;;;5101753;28;20200;-77
2023/06/28 08:44:06;;;;;;;0.00;0.00;;;20.30;99.90;;;;;;5109403;28;20596;-77
2023/06/28 08:46:31;;;;;;;0.00;0.00;;;20.70;99.90;;;;;;5106061;28;20469;-77
2023/06/28 08:48:59;;;;;;;0.00;0.00;;;21.40;99.90;;;;;;5109771;28;20898;-78
2023/06/28 08:51:25;;;;;;;0.00;0.00;;;21.80;99.90;;;;;;5108836;28;20196;-78
2023/06/28 08:53:52;;;;;;;0.10;0.00;;;22.10;99.90;;;;;;5108279;28;21024;-78
2023/06/28 08:56:17;;;;;;;0.10;0.00;;;22.50;99.90;;;;;;5106287;28;20529;-77
2023/06/28 08:58:47;;;;;;;0.10;0.00;;;22.10;99.90;;;;;;5104857;28;20567;-77
2023/06/28 09:01:12;;;;;;;0.10;0.00;;;21.80;99.90;;;;;;5100987;28;20236;-76
2023/06/28 09:03:42;;;;;;;0.10;0.00;;;21.30;99.90;;;;;;5107136;28;20854;-77
2023/06/28 09:06:08;;;;;;;0.10;0.00;;;21.30;99.90;;;;;;5089580;28;20567;-77
2023/06/28 09:08:35;;;;;;;0.10;0.00;;;21.80;99.90;;;;;;5108839;28;20460;-77
2023/06/28 09:11:01;;;;;;;0.10;0.00;;;22.50;99.90;;;;;;5106716;28;20687;-78
2023/06/28 09:13:28;;;;;;;0.10;0.00;;;22.70;99.90;;;;;;5107693;28;20486;-77
2023/06/28 09:15:54;;;;;;;0.10;0.00;;;22.50;99.90;;;;;;5103620;28;20457;-77
2023/06/28 09:18:20;;;;;;;0.10;0.00;;;22.20;99.90;;;;;;5106646;28;21067;-77
2023/06/28 09:20:56;;;;;;;0.20;0.10;;;21.80;99.90;;;;;;5110195;28;20446;-76
2023/06/28 09:23:26;;;;;;;0.10;0.00;;;21.90;99.90;;;;;;5110984;28;20188;-76
2023/06/28 09:25:53;;;;;;;0.10;0.00;;;22.70;99.90;;;;;;5106658;28;20449;-77
2023/06/28 09:28:24;;;;;;;0.10;0.00;;;22.60;99.90;;;;;;5100868;28;20521;-77
2023/06/28 09:30:54;;;;;;;0.10;0.00;;;22.60;99.90;;;;;;5104575;28;21222;-77
2023/06/28 09:33:19;;;;;;;0.10;0.00;;;22.90;99.90;;;;;;5096971;28;21081;-77
2023/06/28 09:35:45;;;;;;;0.10;0.00;;;23.40;99.90;;;;;;5103842;28;20444;-77
2023/06/28 09:38:10;;;;;;;0.10;0.00;;;23.70;99.90;;;;;;5106848;28;20180;-76
2023/06/28 09:40:36;;;;;;;0.10;0.00;;;23.40;99.90;;;;;;5102300;28;20570;-77
2023/06/28 09:43:02;;;;;;;0.10;0.00;;;22.20;99.90;;;;;;5104124;28;20188;-79
2023/06/28 09:45:30;;;;;;;0.10;0.00;;;22.20;99.90;;;;;;5084890;28;20269;-76
2023/06/28 09:47:56;;;;;;;0.10;0.00;;;22.70;99.90;;;;;;5103348;28;20434;-77
2023/06/28 09:50:25;;;;;;;0.10;0.00;;;23.30;99.90;;;;;;5105556;28;20442;-77
2023/06/28 09:52:51;;;;;;;0.10;0.00;;;23.80;99.90;;;;;;5109190;28;20507;-76
2023/06/28 09:55:17;;;;;;;0.10;0.00;;;23.90;99.90;;;;;;5092074;28;20446;-75
2023/06/28 09:57:43;;;;;;;0.00;0.00;;;24.30;99.90;;;;;;5113609;28;20191;-76
2023/06/28 10:00:10;;;;;;;0.00;0.00;;;24.20;99.90;;;;;;5084460;28;20213;-77
2023/06/28 10:02:38;;;;;;;0.00;0.00;;;23.50;99.90;;;;;;5110478;28;21031;-76
2023/06/28 10:05:06;;;;;;;0.00;0.00;;;23.70;99.90;;;;;;5111185;28;20907;-76
2023/06/28 10:07:31;;;;;;;0.00;0.00;;;24.20;99.90;;;;;;5112930;28;20422;-77
2023/06/28 10:09:57;;;;;;;0.00;0.00;;;24.30;99.90;;;;;;5107786;28;20452;-76
2023/06/28 10:12:25;;;;;;;0.00;0.00;;;24.40;99.90;;;;;;5109910;28;20633;-76
2023/06/28 10:15:01;;;;;;;0.00;0.00;;;24.70;99.90;;;;;;5109233;28;20253;-76
2023/06/28 10:17:35;;;;;;;0.00;0.00;;;24.90;99.90;;;;;;5104632;28;20449;-76
2023/06/28 10:20:02;;;;;;;0.00;0.00;;;24.70;99.90;;;;;;5106466;28;20454;-76
2023/06/28 10:22:29;;;;;;;0.00;0.00;;;24.90;99.90;;;;;;5111186;27;20452;-75
2023/06/28 10:24:56;;;;;;;0.10;0.00;;;24.60;99.90;;;;;;5117849;27;20484;-76
2023/06/28 10:27:23;;;;;;;0.10;0.00;;;24.60;99.90;;;;;;5108667;27;20505;-76
2023/06/28 10:29:50;;;;;;;0.10;0.00;;;25.00;99.90;;;;;;5113616;27;20822;-76
2023/06/28 10:32:15;;;;;;;0.10;0.00;;;25.10;99.90;;;;;;5100786;27;20453;-76
2023/06/28 10:34:42;;;;;;;0.10;0.00;;;25.60;99.90;;;;;;5109277;28;20438;-76
2023/06/28 10:37:08;;;;;;;0.10;0.00;;;26.20;99.10;;;;;;5095188;28;20557;-76
2023/06/28 10:39:35;;;;;;;0.10;0.00;;;25.90;98.30;;;;;;5093583;28;20443;-76
2023/06/28 10:42:01;;;;;;;0.10;0.00;;;25.90;98.90;;;;;;5109436;28;20184;-76
2023/06/28 10:44:26;;;;;;;0.10;0.00;;;25.70;98.70;;;;;;5089437;28;20483;-75
2023/06/28 10:47:09;;;;;;;0.10;0.00;;;26.00;98.90;;;;;;5109475;27;20204;-76
2023/06/28 10:49:35;;;;;;;0.10;0.00;;;26.30;98.90;;;;;;5077225;28;20212;-75
2023/06/28 10:52:00;;;;;;;0.10;0.00;;;26.90;99.00;;;;;;5092220;28;20474;-75
2023/06/28 10:54:26;;;;;;;0.10;0.00;;;26.60;98.80;;;;;;5100384;27;22017;-75
2023/06/28 10:56:52;;;;;;;0.10;0.00;;;24.70;98.10;;;;;;5092181;28;20196;-75
2023/06/28 10:59:18;;;;;;;0.10;0.00;;;24.00;99.90;;;;;;5098530;28;20193;-76
2023/06/28 11:01:49;;;;;;;0.10;0.00;;;24.30;99.90;;;;;;5095552;27;20229;-75
2023/06/28 11:04:16;;;;;;;0.10;0.00;;;25.00;99.90;;;;;;5104044;28;20461;-76
2023/06/28 11:06:41;;;;;;;0.10;0.00;;;25.70;99.90;;;;;;5091479;28;20493;-76
2023/06/28 11:09:14;;;;;;;0.10;0.00;;;25.30;99.90;;;;;;5109935;28;20800;-76
2023/06/28 11:11:57;;;;;;;0.10;0.00;;;26.00;99.50;;;;;;5091139;28;20216;-75
2023/06/28 11:14:29;;;;;;;0.10;0.00;;;26.40;99.40;;;;;;5109933;28;20526;-75
2023/06/28 11:17:10;;;;;;;0.10;0.00;;;27.50;96.20;;;;;;5083764;28;20434;-76
2023/06/28 11:19:38;;;;;;;0.10;0.00;;;27.60;96.20;;;;;;5107109;28;20458;-76
2023/06/28 11:22:04;;;;;;;0.10;0.00;;;27.30;95.90;;;;;;5109451;28;20450;-76
2023/06/28 11:24:32;;;;;;;0.10;0.00;;;26.50;97.00;;;;;;5108310;28;20555;-76
2023/06/28 11:26:58;;;;;;;0.10;0.00;;;26.20;98.40;;;;;;5092119;28;20503;-76
2023/06/28 11:29:24;;;;;;;0.10;0.00;;;27.10;99.30;;;;;;5109577;28;20437;-77
2023/06/28 11:31:56;;;;;;;0.10;0.00;;;27.70;98.20;;;;;;5109594;28;20211;-73
2023/06/28 11:34:23;;;;;;;0.10;0.00;;;28.60;96.70;;;;;;5094234;27;20240;-73
2023/06/28 11:36:50;;;;;;;0.10;0.00;;;29.10;96.70;;;;;;5110066;28;20470;-74
2023/06/28 11:39:21;;;;;;;0.10;0.00;;;28.90;97.10;;;;;;5108639;28;20568;-74
2023/06/28 11:41:47;;;;;;;0.10;0.00;;;28.90;97.60;;;;;;5105252;27;20506;-74
2023/06/28 11:44:13;;;;;;;0.10;0.00;;;29.30;95.90;;;;;;5106409;28;20486;-73
2023/06/28 11:46:40;;;;;;;0.10;0.00;;;28.80;94.40;;;;;;5109130;28;20438;-74
2023/06/28 11:49:07;;;;;;;0.00;0.00;;;26.90;96.20;;;;;;5090135;27;20454;-73
2023/06/28 11:51:34;;;;;;;0.10;0.00;;;27.30;97.40;;;;;;5091555;28;20853;-74
2023/06/28 11:54:00;;;;;;;0.10;0.00;;;26.60;97.80;;;;;;5081412;27;20448;-74
2023/06/28 11:56:33;;;;;;;0.10;0.00;;;25.80;99.90;;;;;;5095477;28;20442;-75
2023/06/28 11:58:58;;;;;;;0.10;0.00;;;25.40;99.90;;;;;;5098223;28;20185;-76
2023/06/28 12:01:24;;;;;;;0.10;0.00;;;25.50;99.90;;;;;;5095106;28;20464;-76
2023/06/28 12:03:50;;;;;;;0.10;0.00;;;25.80;99.30;;;;;;5113971;27;20206;-75
2023/06/28 12:06:16;;;;;;;0.10;0.00;;;26.90;99.00;;;;;;5119194;27;20469;-75
2023/06/28 12:08:41;;;;;;;0.10;0.00;;;26.50;98.70;;;;;;5111425;27;20177;-76
2023/06/28 12:11:10;;;;;;;0.10;0.00;;;25.70;99.30;;;;;;5120652;27;20215;-75
2023/06/28 12:13:35;;;;;;;0.10;0.00;;;26.30;99.90;;;;;;5091617;28;20272;-75
2023/06/28 12:16:15;;;;;;;0.10;0.00;;;27.00;98.40;;;;;;5108553;28;20540;-74
2023/06/28 12:18:56;;;;;;;0.10;0.00;;;28.30;98.00;;;;;;5108164;27;20657;-73
2023/06/28 12:21:23;;;;;;;0.10;0.00;;;27.70;94.30;;;;;;5110443;27;20817;-75
2023/06/28 12:23:50;;;;;;;0.10;0.00;;;28.60;94.50;;;;;;5110718;28;20630;-79
2023/06/28 12:26:16;;;;;;;0.10;0.00;;;28.20;95.70;;;;;;5114327;27;20445;-76
2023/06/28 12:28:47;;;;;;;0.10;0.00;;;29.60;95.00;;;;;;5107217;27;20983;-76
2023/06/28 12:31:14;;;;;;;0.10;0.00;;;29.20;93.10;;;;;;5115343;27;20655;-75
2023/06/28 12:33:40;;;;;;;0.10;0.10;;;30.30;92.00;;;;;;5096964;27;20440;-73
2023/06/28 12:36:05;;;;;;;0.10;0.00;;;30.70;93.90;;;;;;5129424;27;20425;-74
2023/06/28 12:38:31;;;;;;;0.10;0.00;;;30.20;95.10;;;;;;5106530;27;20181;-76
2023/06/28 12:40:58;;;;;;;0.10;0.00;;;29.20;94.20;;;;;;5109507;28;20211;-77
2023/06/28 12:43:25;;;;;;;0.10;0.00;;;27.80;95.60;;;;;;5106552;28;20182;-77